Time;durP1;ratioP1;P1;durP2;ratioP2;P2;SDS_P1;SDS_P2;PMS_P1;PMS_P2;Temp;Humidity;BMP_temperature;BMP_pressure;BME280_temperature;BME280_humidity;BME280_pressure;Samples;Min_cycle;Max_cycle;Signal;HPM_P1;HPM_P2
2021/04/16 00:02:18;;;;;;;16.70;6.70;;;;;;;17.01;58.45;100215.88;4932302;29;20545;-66
2021/04/16 00:04:45;;;;;;;13.20;6.43;;;;;;;16.99;58.36;100212.53;4928005;29;20044;-70
2021/04/16 00:07:12;;;;;;;13.60;6.93;;;;;;;16.99;57.69;100213.41;4928173;29;20472;-71
2021/04/16 00:09:38;;;;;;;14.83;6.53;;;;;;;17.02;57.82;100215.53;4931937;29;20083;-69
2021/04/16 00:12:06;;;;;;;13.10;6.47;;;;;;;17.03;57.96;100208.75;4914582;29;20481;-71
2021/04/16 00:14:33;;;;;;;16.53;6.77;;;;;;;17.09;57.52;100206.56;4928307;29;20142;-69
2021/04/16 00:17:00;;;;;;;12.80;6.53;;;;;;;17.15;57.47;100212.88;4930734;29;20056;-68
2021/04/16 00:19:27;;;;;;;14.27;6.70;;;;;;;17.11;57.30;100198.59;4930282;29;20056;-68
2021/04/16 00:21:53;;;;;;;10.97;6.57;;;;;;;17.27;57.22;100222.34;4929766;29;20409;-67
2021/04/16 00:24:20;;;;;;;12.40;6.07;;;;;;;17.26;57.13;100208.53;4932948;29;20412;-67
2021/04/16 00:26:46;;;;;;;12.57;5.93;;;;;;;17.15;57.45;100210.88;4926971;29;20153;-66
2021/04/16 00:29:13;;;;;;;10.70;6.23;;;;;;;17.12;57.69;100213.53;4933256;29;20097;-66
2021/04/16 00:31:53;;;;;;;17.30;6.60;;;;;;;17.03;57.98;100219.19;4932103;29;20043;-68
2021/04/16 00:34:21;;;;;;;11.55;6.35;;;;;;;16.96;57.99;100210.41;4928103;29;20485;-66
2021/04/16 00:36:48;;;;;;;12.57;6.50;;;;;;;16.89;58.16;100213.72;4928067;29;20055;-67
2021/04/16 00:39:17;;;;;;;13.93;5.73;;;;;;;16.83;58.29;100206.59;4932591;29;20071;-68
2021/04/16 00:41:44;;;;;;;13.37;6.60;;;;;;;16.79;58.67;100209.25;4927830;29;20142;-67
2021/04/16 00:44:13;;;;;;;10.02;6.10;;;;;;;16.84;58.18;100211.06;4930825;29;20044;-67
2021/04/16 00:46:45;;;;;;;9.70;5.83;;;;;;;16.78;58.53;100201.09;4931881;29;20453;-68
2021/04/16 00:49:25;;;;;;;11.17;6.23;;;;;;;16.80;58.34;100196.78;4931220;29;20046;-69
2021/04/16 00:51:54;;;;;;;;;;;;;;;16.84;58.12;100198.94;4914783;29;20060;-69
2021/04/16 00:54:28;;;;;;;11.90;6.63;;;;;;;16.73;58.37;100199.25;4925948;29;19930;-70
2021/04/16 00:56:54;;;;;;;12.30;6.40;;;;;;;16.67;58.48;100192.09;4929176;29;20151;-69
2021/04/16 00:59:27;;;;;;;10.40;6.53;;;;;;;16.72;58.30;100194.78;4930969;29;21703;-70
2021/04/16 01:01:54;;;;;;;12.40;6.93;;;;;;;16.80;57.69;100196.78;4928255;29;20075;-66
2021/04/16 01:04:21;;;;;;;12.73;6.77;;;;;;;16.86;57.38;100205.09;4929847;29;20119;-67
2021/04/16 01:06:52;;;;;;;14.83;6.47;;;;;;;16.72;57.14;100180.66;4930104;29;20091;-67
2021/04/16 01:09:19;;;;;;;11.43;6.13;;;;;;;16.70;57.08;100168.88;4932334;29;20071;-67
2021/04/16 01:11:46;;;;;;;15.90;5.87;;;;;;;16.78;56.95;100178.53;4927791;29;20050;-67
2021/04/16 01:14:13;;;;;;;15.40;6.60;;;;;;;16.86;56.83;100189.00;4930032;29;20054;-67
2021/04/16 01:16:41;;;;;;;9.60;5.23;;;;;;;16.72;57.10;100180.66;4929431;29;20159;-68
2021/04/16 01:19:21;;;;;;;13.77;6.37;;;;;;;16.57;57.28;100181.13;4926614;29;20048;-64
2021/04/16 01:21:59;;;;;;;13.45;6.95;;;;;;;16.31;57.58;100181.13;4929296;29;20051;-64
2021/04/16 01:24:27;;;;;;;12.10;6.00;;;;;;;16.25;57.64;100183.25;4927014;29;20148;-65
2021/04/16 01:26:54;;;;;;;11.30;6.33;;;;;;;16.14;57.55;100170.63;4932319;29;20062;-70
2021/04/16 01:29:22;;;;;;;14.03;6.90;;;;;;;16.18;57.33;100185.72;4924102;29;20052;-66
2021/04/16 01:31:48;;;;;;;10.93;5.43;;;;;;;16.16;57.21;100184.38;4929569;29;20131;-66
2021/04/16 01:34:25;;;;;;;9.23;5.33;;;;;;;16.12;57.09;100178.56;4929653;29;20051;-65
2021/04/16 01:36:54;;;;;;;10.03;6.00;;;;;;;16.05;57.10;100178.22;4929146;29;20413;-66
2021/04/16 01:39:22;;;;;;;9.43;5.18;;;;;;;15.99;57.08;100173.88;4927748;29;20515;-65
2021/04/16 01:41:49;;;;;;;11.60;6.03;;;;;;;15.93;57.10;100175.19;4928988;29;20134;-65
2021/04/16 01:44:18;;;;;;;11.73;6.23;;;;;;;15.82;57.29;100177.47;4927956;29;20405;-71
2021/04/16 01:46:57;;;;;;;11.60;4.78;;;;;;;15.72;57.38;100175.75;4927565;29;20504;-70
2021/04/16 01:49:27;;;;;;;8.47;4.70;;;;;;;15.65;57.54;100169.75;4928037;29;20043;-70
2021/04/16 01:51:54;;;;;;;12.05;5.32;;;;;;;15.56;57.75;100169.72;4930848;29;20133;-69
2021/04/16 01:54:20;;;;;;;13.30;5.57;;;;;;;15.55;57.82;100168.03;4930310;29;20048;-68
2021/04/16 01:56:51;;;;;;;11.47;6.03;;;;;;;15.47;57.99;100168.00;4929547;29;20052;-65
2021/04/16 01:59:24;;;;;;;9.07;5.30;;;;;;;15.40;58.05;100158.03;4926927;29;20039;-61
2021/04/16 02:01:51;;;;;;;10.70;6.03;;;;;;;15.61;57.63;100177.19;4920139;29;20139;-60
2021/04/16 02:04:19;;;;;;;12.63;5.77;;;;;;;15.55;57.65;100158.75;4922736;29;20059;-60
2021/04/16 02:06:46;;;;;;;13.80;5.80;;;;;;;15.56;57.66;100160.44;4929980;29;20126;-66
2021/04/16 02:09:15;;;;;;;12.40;5.83;;;;;;;15.61;57.71;100165.91;4913666;29;20469;-68
2021/04/16 02:11:43;;;;;;;13.70;6.45;;;;;;;15.56;57.66;100155.63;4929422;29;20051;-66
2021/04/16 02:14:15;;;;;;;15.83;5.80;;;;;;;15.59;57.76;100163.44;4928736;29;20126;-68
2021/04/16 02:16:44;;;;;;;11.87;6.10;;;;;;;15.53;57.82;100158.28;4928225;29;20051;-67
2021/04/16 02:19:12;;;;;;;14.57;5.97;;;;;;;15.51;58.21;100169.84;4928800;29;20054;-69
2021/04/16 02:21:39;;;;;;;11.97;6.47;;;;;;;15.30;58.39;100147.06;4929902;29;20569;-69
2021/04/16 02:24:08;;;;;;;12.03;5.63;;;;;;;15.32;58.65;100158.81;4929828;29;20052;-64
2021/04/16 02:26:35;;;;;;;9.60;5.63;;;;;;;15.28;59.05;100163.44;4931874;29;20058;-66
2021/04/16 02:29:04;;;;;;;11.53;6.20;;;;;;;15.30;59.05;100157.47;4929324;29;20056;-67
2021/04/16 02:31:32;;;;;;;15.13;5.90;;;;;;;15.24;59.26;100162.41;4929134;29;20103;-68
2021/04/16 02:33:58;;;;;;;9.77;6.50;;;;;;;15.21;59.54;100163.03;4923639;29;20079;-69
2021/04/16 02:36:25;;;;;;;11.23;6.47;;;;;;;15.21;59.53;100177.09;4930095;29;20378;-65
2021/04/16 02:38:53;;;;;;;15.13;7.23;;;;;;;15.21;59.63;100165.03;4932721;29;20130;-66
2021/04/16 02:41:20;;;;;;;12.67;5.67;;;;;;;15.13;59.85;100169.44;4936452;29;20039;-66
2021/04/16 02:43:49;;;;;;;7.93;5.27;;;;;;;15.08;60.08;100161.16;4932876;29;20050;-65
2021/04/16 02:46:16;;;;;;;12.43;6.55;;;;;;;14.98;60.41;100167.03;4934000;29;20044;-62
2021/04/16 02:48:42;;;;;;;10.40;6.07;;;;;;;14.98;60.35;100167.03;4933913;29;20055;-64
2021/04/16 02:51:08;;;;;;;14.87;6.53;;;;;;;15.02;60.15;100168.06;4932587;29;20126;-65
2021/04/16 02:53:35;;;;;;;10.17;4.93;;;;;;;14.80;60.60;100161.28;4934033;29;20512;-64
2021/04/16 02:56:01;;;;;;;8.93;5.73;;;;;;;14.84;60.58;100173.53;4933133;29;20052;-65
2021/04/16 02:58:29;;;;;;;9.53;5.10;;;;;;;14.81;60.54;100170.53;4932589;29;20776;-62
2021/04/16 03:00:56;;;;;;;6.43;2.73;;;;;;;14.78;60.84;100165.56;4930761;29;20055;-65
2021/04/16 03:03:22;;;;;;;9.93;5.40;;;;;;;14.78;60.84;100168.38;4932168;29;20044;-64
2021/04/16 03:05:49;;;;;;;12.13;5.70;;;;;;;14.74;60.67;100168.16;4933639;29;20051;-63
2021/04/16 03:08:15;;;;;;;8.60;5.13;;;;;;;14.73;60.82;100177.72;4933982;29;20404;-65
2021/04/16 03:10:41;;;;;;;7.33;3.87;;;;;;;14.68;60.93;100170.25;4931796;29;20051;-62
2021/04/16 03:13:08;;;;;;;16.27;6.57;;;;;;;14.72;60.86;100175.25;4932053;29;20055;-63
2021/04/16 03:15:35;;;;;;;9.50;5.10;;;;;;;14.80;60.66;100166.91;4932947;29;20416;-62
2021/04/16 03:18:03;;;;;;;14.03;6.30;;;;;;;14.98;60.19;100162.25;4933976;29;20048;-61
2021/04/16 03:20:29;;;;;;;15.80;6.83;;;;;;;15.17;59.73;100170.47;4932875;29;20062;-63
2021/04/16 03:22:56;;;;;;;12.23;5.90;;;;;;;15.25;59.35;100172.53;4931113;29;20048;-61
2021/04/16 03:25:22;;;;;;;8.57;5.23;;;;;;;15.29;59.22;100175.50;4933064;29;20621;-64
2021/04/16 03:27:48;;;;;;;10.80;6.27;;;;;;;15.31;59.11;100176.84;4933654;29;20081;-62
2021/04/16 03:30:20;;;;;;;7.73;5.17;;;;;;;15.35;58.80;100172.25;4932626;29;20769;-62
2021/04/16 03:32:46;;;;;;;7.90;5.50;;;;;;;15.39;58.35;100164.00;4929064;29;20044;-61
2021/04/16 03:35:14;;;;;;;14.07;6.87;;;;;;;15.50;58.04;100179.44;4930808;29;20486;-60
2021/04/16 03:37:41;;;;;;;13.37;6.67;;;;;;;15.45;58.13;100159.88;4930914;29;20051;-62
2021/04/16 03:40:09;;;;;;;12.67;6.33;;;;;;;15.56;57.76;100164.09;4931205;29;20490;-61
2021/04/16 03:42:35;;;;;;;11.97;6.00;;;;;;;15.61;57.93;100186.44;4932282;29;20130;-61
2021/04/16 03:45:04;;;;;;;9.73;6.43;;;;;;;15.65;57.90;100175.38;4933891;29;20164;-62
2021/04/16 03:47:31;;;;;;;13.40;6.43;;;;;;;15.69;57.85;100181.22;4933512;29;20047;-62
2021/04/16 03:49:58;;;;;;;12.70;6.87;;;;;;;15.75;57.80;100180.75;4931897;29;20461;-62
2021/04/16 03:52:26;;;;;;;15.70;7.20;;;;;;;15.73;57.82;100168.16;4930310;29;20154;-61
2021/04/16 03:54:54;;;;;;;11.40;6.10;;;;;;;15.83;57.90;100188.41;4933221;29;20135;-62
2021/04/16 03:57:21;;;;;;;13.83;6.57;;;;;;;15.86;57.74;100190.59;4929191;29;20055;-64
2021/04/16 03:59:48;;;;;;;13.40;6.17;;;;;;;15.97;57.47;100193.13;4935147;29;20378;-63
2021/04/16 04:02:14;;;;;;;9.17;6.13;;;;;;;15.93;57.10;100167.59;4929225;29;20412;-68
2021/04/16 04:04:41;;;;;;;8.73;6.70;;;;;;;16.10;57.10;100197.78;4931819;29;20405;-67
2021/04/16 04:07:07;;;;;;;18.77;7.07;;;;;;;16.12;57.24;100198.28;4930211;29;20049;-64
2021/04/16 04:09:36;;;;;;;12.17;6.33;;;;;;;16.14;57.13;100212.03;4933157;29;20063;-62
2021/04/16 04:12:04;;;;;;;18.10;6.73;;;;;;;16.14;57.23;100197.94;4930756;29;20462;-62
2021/04/16 04:14:31;;;;;;;11.83;6.47;;;;;;;16.14;57.15;100198.81;4931005;29;20059;-65
2021/04/16 04:17:00;;;;;;;12.83;6.80;;;;;;;16.07;57.38;100187.19;4931023;29;20402;-65
2021/04/16 04:19:29;;;;;;;12.88;6.70;;;;;;;15.82;57.80;100181.09;4934488;29;20059;-65
2021/04/16 04:21:57;;;;;;;14.27;7.37;;;;;;;15.69;58.25;100186.84;4916402;29;20048;-67
2021/04/16 04:24:24;;;;;;;13.03;6.97;;;;;;;15.58;58.53;100189.91;4933577;29;20416;-64
2021/04/16 04:26:51;;;;;;;13.40;6.57;;;;;;;15.54;58.58;100190.88;4929545;29;20124;-63
2021/04/16 04:29:20;;;;;;;9.00;6.33;;;;;;;15.52;58.49;100187.53;4931081;29;20052;-64
2021/04/16 04:31:49;;;;;;;11.03;6.23;;;;;;;15.46;58.54;100188.88;4932962;29;20051;-65
2021/04/16 04:34:27;;;;;;;9.55;5.72;;;;;;;15.33;58.95;100180.16;4933582;29;20055;-63
2021/04/16 04:36:57;;;;;;;15.83;6.70;;;;;;;15.23;59.15;100183.25;4933492;29;20414;-64
2021/04/16 04:39:25;;;;;;;12.95;6.97;;;;;;;15.06;59.37;100177.50;4926907;29;20473;-64
2021/04/16 04:41:51;;;;;;;12.27;6.20;;;;;;;14.97;59.66;100188.66;4928950;29;20489;-63
2021/04/16 04:44:18;;;;;;;7.80;5.57;;;;;;;14.87;59.75;100188.91;4929501;29;20457;-64
2021/04/16 04:46:44;;;;;;;10.20;5.10;;;;;;;14.76;60.09;100188.34;4930990;29;20044;-64
2021/04/16 04:49:11;;;;;;;6.83;4.40;;;;;;;14.63;60.28;100189.22;4913302;29;20075;-63
2021/04/16 04:51:39;;;;;;;9.27;5.50;;;;;;;14.55;60.63;100182.38;4931518;29;20059;-65
2021/04/16 04:54:08;;;;;;;8.40;5.00;;;;;;;14.50;60.59;100195.69;4930511;29;20043;-64
2021/04/16 04:56:35;;;;;;;14.93;5.93;;;;;;;14.53;60.55;100195.94;4932909;29;20126;-65
2021/04/16 04:59:03;;;;;;;9.43;5.50;;;;;;;14.42;60.62;100181.22;4928903;29;20048;-65
2021/04/16 05:01:29;;;;;;;12.93;5.77;;;;;;;14.52;60.46;100193.41;4931367;29;20139;-64
2021/04/16 05:03:56;;;;;;;7.57;4.93;;;;;;;14.55;60.43;100204.03;4928918;29;20052;-64
2021/04/16 05:06:22;;;;;;;10.93;6.03;;;;;;;14.53;60.57;100200.69;4931981;29;20047;-64
2021/04/16 05:08:48;;;;;;;10.17;5.27;;;;;;;14.48;60.65;100203.59;4932202;29;20048;-64
2021/04/16 05:11:14;;;;;;;10.40;5.67;;;;;;;14.44;60.73;100197.78;4928394;29;20070;-65
2021/04/16 05:13:41;;;;;;;9.80;6.63;;;;;;;14.53;60.44;100204.34;4932174;29;20043;-67
2021/04/16 05:16:10;;;;;;;12.67;5.87;;;;;;;14.69;60.03;100199.19;4929543;29;20138;-64
2021/04/16 05:18:37;;;;;;;14.73;7.18;;;;;;;14.82;59.76;100209.56;4933038;29;20044;-65
2021/04/16 05:21:05;;;;;;;10.17;6.47;;;;;;;14.93;59.41;100205.34;4927215;29;20054;-66
2021/04/16 05:23:34;;;;;;;10.35;6.13;;;;;;;15.00;59.21;100207.72;4929564;29;20133;-62
2021/04/16 05:26:01;;;;;;;15.87;6.43;;;;;;;14.95;59.29;100207.88;4932265;29;20052;-63
2021/04/16 05:28:27;;;;;;;9.57;6.20;;;;;;;14.93;59.30;100219.41;4931028;29;20055;-63
2021/04/16 05:30:53;;;;;;;12.70;6.33;;;;;;;14.97;59.22;100215.97;4928106;29;20048;-63
2021/04/16 05:33:20;;;;;;;12.40;6.37;;;;;;;15.03;59.09;100214.69;4929348;29;20416;-65
2021/04/16 05:35:46;;;;;;;10.40;5.93;;;;;;;15.07;59.02;100229.78;4933514;29;20054;-63
2021/04/16 05:38:12;;;;;;;10.77;6.43;;;;;;;15.14;58.89;100230.16;4930116;29;20043;-63
2021/04/16 05:40:39;;;;;;;12.93;6.30;;;;;;;15.19;58.80;100235.69;4928789;29;20058;-64
2021/04/16 05:43:06;;;;;;;9.17;6.03;;;;;;;15.25;58.78;100240.03;4932298;29;20520;-63
2021/04/16 05:45:32;;;;;;;13.03;6.33;;;;;;;15.32;58.29;100233.97;4929129;29;20135;-61
2021/04/16 05:47:59;;;;;;;9.70;5.47;;;;;;;15.24;58.50;100235.53;4927492;29;20056;-61
2021/04/16 05:50:25;;;;;;;10.30;5.33;;;;;;;15.06;58.63;100223.31;4930061;29;20078;-61
2021/04/16 05:52:52;;;;;;;11.37;5.03;;;;;;;14.96;58.77;100236.81;4928996;29;20039;-61
2021/04/16 05:55:18;;;;;;;9.57;4.00;;;;;;;14.73;59.19;100233.94;4927269;29;20126;-60
2021/04/16 05:57:45;;;;;;;9.70;3.70;;;;;;;14.71;59.08;100244.69;4925919;29;20051;-60
2021/04/16 06:00:12;;;;;;;6.47;4.53;;;;;;;14.54;59.10;100220.06;4929372;29;20103;-59
2021/04/16 06:02:41;;;;;;;8.97;4.20;;;;;;;14.65;58.96;100243.13;4925520;29;20544;-59
2021/04/16 06:05:13;;;;;;;6.07;3.63;;;;;;;14.58;58.83;100248.34;4929367;29;20102;-60
2021/04/16 06:07:39;;;;;;;10.13;4.13;;;;;;;14.48;58.80;100245.75;4927375;29;20146;-60
2021/04/16 06:10:08;;;;;;;6.00;3.83;;;;;;;14.44;58.60;100256.78;4927688;29;20497;-60
2021/04/16 06:12:37;;;;;;;9.70;4.40;;;;;;;14.32;58.62;100251.66;4925353;29;20092;-60
2021/04/16 06:15:10;;;;;;;7.07;4.30;;;;;;;14.08;58.92;100254.69;4929632;28;20412;-62
2021/04/16 06:17:38;;;;;;;4.03;2.40;;;;;;;13.91;59.27;100258.13;4927424;29;20126;-65
2021/04/16 06:20:07;;;;;;;7.37;3.00;;;;;;;13.89;59.01;100262.38;4927416;29;20070;-66
2021/04/16 06:22:34;;;;;;;4.15;2.97;;;;;;;13.81;59.13;100257.47;4924284;29;20143;-67
2021/04/16 06:25:00;;;;;;;8.33;3.10;;;;;;;13.89;59.20;100265.19;4927851;29;20044;-62
2021/04/16 06:27:26;;;;;;;3.10;2.47;;;;;;;13.92;59.38;100265.41;4926057;29;20418;-79
2021/04/16 06:29:53;;;;;;;4.17;2.50;;;;;;;13.99;59.07;100265.81;4927297;29;20135;-65
2021/04/16 06:32:20;;;;;;;2.63;2.10;;;;;;;14.07;58.68;100261.47;4926826;29;20135;-61
2021/04/16 06:34:54;;;;;;;6.03;2.97;;;;;;;14.22;58.33;100268.72;4929586;29;20119;-61
2021/04/16 06:37:20;;;;;;;6.95;3.45;;;;;;;14.43;57.82;100271.97;4927253;29;20693;-61
2021/04/16 06:39:46;;;;;;;9.17;3.40;;;;;;;14.57;57.26;100269.19;4926782;29;20043;-61
2021/04/16 06:42:29;;;;;;;4.63;2.93;;;;;;;14.78;56.91;100281.63;4925025;29;20040;-61
2021/04/16 06:44:58;;;;;;;4.77;2.93;;;;;;;14.92;56.46;100279.63;4926401;29;20048;-63
2021/04/16 06:47:42;;;;;;;12.30;4.97;;;;;;;14.98;55.97;100285.97;4928398;29;20078;-61
2021/04/16 06:50:13;;;;;;;6.27;3.63;;;;;;;15.17;55.75;100275.34;4925609;29;20059;-61
2021/04/16 06:52:49;;;;;;;10.10;4.53;;;;;;;15.30;55.11;100279.28;4927020;29;20127;-60
2021/04/16 06:55:29;;;;;;;6.53;2.60;;;;;;;15.35;54.13;100267.06;4926299;29;20054;-59
2021/04/16 06:57:59;;;;;;;6.27;3.07;;;;;;;15.58;53.43;100294.03;4925953;29;20051;-60
2021/04/16 07:00:45;;;;;;;4.78;2.95;;;;;;;15.76;52.73;100299.81;4926887;29;20055;-61
2021/04/16 07:03:18;;;;;;;4.90;3.03;;;;;;;15.87;52.01;100264.63;4925500;29;20138;-60
2021/04/16 07:05:51;;;;;;;9.53;3.67;;;;;;;16.18;51.46;100289.97;4928292;29;20473;-60
2021/04/16 07:08:34;;;;;;;1.83;1.70;;;;;;;16.03;50.74;100265.00;4919002;29;20058;-61
2021/04/16 07:11:03;;;;;;;5.33;2.43;;;;;;;16.26;50.07;100289.16;4924388;29;20462;-60
2021/04/16 07:13:36;;;;;;;3.27;2.10;;;;;;;16.43;49.55;100290.38;4923866;29;20054;-61
2021/04/16 07:16:04;;;;;;;9.20;3.50;;;;;;;16.59;48.91;100295.25;4929870;29;20050;-61
2021/04/16 07:18:37;;;;;;;3.90;2.60;;;;;;;16.72;48.10;100296.28;4922657;29;20051;-61
2021/04/16 07:21:07;;;;;;;6.70;3.73;;;;;;;16.68;46.96;100289.59;4925050;29;20055;-61
2021/04/16 07:23:44;;;;;;;7.93;3.25;;;;;;;16.93;46.76;100298.50;4931353;29;20390;-60
2021/04/16 07:26:47;;;;;;;8.17;4.37;;;;;;;17.23;45.67;100296.69;4929106;29;20405;-60
2021/04/16 07:29:42;;;;;;;9.63;3.60;;;;;;;17.36;44.77;100309.81;4930455;29;20047;-61
2021/04/16 07:32:35;;;;;;;6.20;4.50;;;;;;;17.44;43.90;100294.03;4932854;29;20084;-60
2021/04/16 07:35:20;;;;;;;6.20;2.93;;;;;;;17.53;43.57;100304.16;4930536;29;20159;-60
2021/04/16 07:37:59;;;;;;;11.80;3.50;;;;;;;17.67;43.29;100294.66;4929103;29;20437;-61
2021/04/16 07:40:39;;;;;;;8.87;3.67;;;;;;;17.89;43.01;100296.50;4929003;29;20406;-60
2021/04/16 07:43:13;;;;;;;7.57;4.47;;;;;;;18.37;42.89;100296.16;4910587;29;20636;-61
2021/04/16 07:45:48;;;;;;;6.70;3.05;;;;;;;18.38;42.05;100299.81;4930055;29;20062;-60
2021/04/16 07:48:20;;;;;;;4.70;2.72;;;;;;;18.29;41.95;100310.31;4928946;29;20115;-59
2021/04/16 07:50:52;;;;;;;6.25;3.38;;;;;;;18.51;41.49;100307.25;4926505;29;20134;-60
2021/04/16 07:53:40;;;;;;;6.18;3.15;;;;;;;18.72;40.11;100298.00;4930939;29;20504;-60
2021/04/16 07:56:15;;;;;;;3.08;2.33;;;;;;;18.69;39.21;100314.44;4931215;29;20056;-61
2021/04/16 07:59:14;;;;;;;4.75;1.65;;;;;;;18.86;39.35;100307.06;4927028;29;20383;-61
2021/04/16 08:01:48;;;;;;;5.95;3.03;;;;;;;19.11;38.97;100313.72;4927268;29;20052;-61
2021/04/16 08:04:23;;;;;;;4.47;2.95;;;;;;;19.10;37.80;100307.22;4927802;29;20406;-64
2021/04/16 08:06:54;;;;;;;5.22;2.95;;;;;;;19.29;37.50;100305.94;4930542;29;20051;-60
2021/04/16 08:09:25;;;;;;;3.83;1.83;;;;;;;19.55;36.22;100325.53;4924963;29;20544;-61
2021/04/16 08:12:09;;;;;;;2.85;1.75;;;;;;;20.03;35.85;100319.28;4930231;29;20126;-60
2021/04/16 08:14:39;;;;;;;4.07;2.13;;;;;;;20.56;35.09;100311.00;4926627;29;20130;-61
2021/04/16 08:17:16;;;;;;;8.15;2.53;;;;;;;20.89;33.99;100322.22;4930868;29;20047;-61
2021/04/16 08:19:44;;;;;;;2.13;1.40;;;;;;;21.10;33.97;100315.59;4929527;29;20059;-61
2021/04/16 08:22:35;;;;;;;7.97;2.40;;;;;;;21.00;32.30;100322.56;4928448;29;20043;-60
2021/04/16 08:25:08;;;;;;;5.50;2.67;;;;;;;21.44;32.62;100320.72;4909379;29;20445;-61
2021/04/16 08:27:39;;;;;;;6.45;2.97;;;;;;;22.06;32.02;100331.84;4926623;29;20110;-61
2021/04/16 08:30:27;;;;;;;4.47;2.80;;;;;;;22.51;31.62;100330.63;4927287;29;20413;-61
2021/04/16 08:33:00;;;;;;;;;;;;;;;22.83;31.24;100326.56;4926711;29;20044;-60
2021/04/16 08:36:05;;;;;;;4.18;2.05;;;;;;;22.96;30.98;100313.06;4923209;29;19930;-61
2021/04/16 08:38:58;;;;;;;2.10;1.40;;;;;;;22.66;28.74;100324.91;4924025;29;20058;-60
2021/04/16 08:41:31;;;;;;;3.30;1.85;;;;;;;22.35;28.44;100328.59;4924031;29;20143;-60
2021/04/16 08:44:03;;;;;;;4.22;1.90;;;;;;;22.06;28.12;100326.97;4929073;29;20058;-60
2021/04/16 08:46:36;;;;;;;7.85;1.98;;;;;;;22.09;28.15;100348.19;4929199;29;20048;-61
2021/04/16 08:49:10;;;;;;;4.25;1.15;;;;;;;22.28;27.71;100328.41;4927086;29;20142;-61
2021/04/16 08:51:43;;;;;;;6.13;1.50;;;;;;;22.55;27.83;100315.28;4929852;29;20058;-61
2021/04/16 08:54:23;;;;;;;4.38;1.70;;;;;;;22.98;27.62;100332.66;4929491;29;20134;-60
2021/04/16 08:57:13;;;;;;;3.40;1.75;;;;;;;23.33;27.76;100335.50;4928044;29;20056;-60
2021/04/16 08:59:58;;;;;;;8.02;2.28;;;;;;;23.71;27.01;100336.75;4927907;29;20601;-60
2021/04/16 09:02:59;;;;;;;8.10;2.00;;;;;;;24.11;25.98;100324.97;4925213;29;20099;-60
2021/04/16 09:05:32;;;;;;;3.38;2.30;;;;;;;23.99;25.22;100342.22;4918005;29;20118;-61
2021/04/16 09:08:24;;;;;;;5.43;1.80;;;;;;;23.11;24.83;100291.44;4930271;29;20508;-60
2021/04/16 09:10:58;;;;;;;3.97;2.00;;;;;;;23.49;25.53;100329.75;4929367;29;20139;-60
2021/04/16 09:13:40;;;;;;;7.05;2.55;;;;;;;23.79;25.44;100330.81;4929067;29;20058;-60
2021/04/16 09:16:48;;;;;;;2.60;1.40;;;;;;;24.12;25.00;100335.16;4927652;29;20067;-60
2021/04/16 09:19:23;;;;;;;3.33;1.83;;;;;;;23.87;24.37;100332.63;4923442;29;20047;-60
2021/04/16 09:22:01;;;;;;;4.95;1.52;;;;;;;24.06;25.04;100331.78;4924866;29;20062;-60
2021/04/16 09:24:53;;;;;;;5.88;2.55;;;;;;;24.12;24.88;100340.88;4930006;29;20043;-61
2021/04/16 09:27:26;;;;;;;3.15;1.95;;;;;;;24.35;24.73;100344.56;4926800;29;20058;-60
2021/04/16 09:30:30;;;;;;;7.03;3.08;;;;;;;24.31;24.25;100343.69;4928759;29;20054;-60
2021/04/16 09:33:21;;;;;;;4.22;2.30;;;;;;;23.78;23.92;100343.44;4926927;29;20152;-59
2021/04/16 09:36:02;;;;;;;3.10;2.05;;;;;;;23.70;23.92;100355.09;4928110;29;20082;-60
2021/04/16 09:38:53;;;;;;;6.10;2.55;;;;;;;24.04;24.41;100354.16;4927618;29;20043;-61
2021/04/16 09:41:19;;;;;;;3.65;1.17;;;;;;;24.43;23.65;100367.56;4924495;29;20424;-61
2021/04/16 09:43:51;;;;;;;1.60;1.23;;;;;;;24.06;22.99;100362.34;4926492;29;20051;-60
2021/04/16 09:46:33;;;;;;;6.97;1.98;;;;;;;23.60;23.30;100360.13;4926003;29;20628;-58
2021/04/16 09:49:04;;;;;;;5.70;1.60;;;;;;;23.53;23.60;100362.00;4922799;29;20051;-60
2021/04/16 09:51:38;;;;;;;3.88;2.40;;;;;;;23.77;23.57;100370.31;4924475;29;20142;-59
2021/04/16 09:54:07;;;;;;;6.10;1.58;;;;;;;23.96;23.67;100355.22;4921695;29;20058;-60
2021/04/16 09:56:38;;;;;;;3.33;1.95;;;;;;;24.03;23.10;100363.09;4927624;29;20573;-60
2021/04/16 09:59:32;;;;;;;4.45;2.80;;;;;;;24.49;22.99;100368.91;4926375;29;20051;-60
2021/04/16 10:02:10;;;;;;;3.35;1.70;;;;;;;24.92;22.98;100366.78;4922477;29;20461;-59
2021/04/16 10:04:52;;;;;;;5.53;1.95;;;;;;;25.02;22.58;100377.56;4926013;29;20055;-61
2021/04/16 10:07:31;;;;;;;4.55;1.88;;;;;;;25.20;22.35;100384.44;4926144;29;20473;-59
2021/04/16 10:10:07;;;;;;;2.85;1.67;;;;;;;25.24;22.39;100378.78;4920811;29;20044;-60
2021/04/16 10:12:34;;;;;;;4.38;2.67;;;;;;;25.55;22.36;100376.78;4925171;29;20063;-60
2021/04/16 10:15:22;;;;;;;5.47;1.90;;;;;;;25.99;22.50;100379.84;4921060;29;20048;-59
2021/04/16 10:17:53;;;;;;;7.57;2.33;;;;;;;26.12;21.77;100372.66;4924215;29;20538;-59
2021/04/16 10:20:20;;;;;;;3.78;2.05;;;;;;;25.93;21.85;100384.28;4925056;29;20068;-58
2021/04/16 10:23:03;;;;;;;6.38;2.13;;;;;;;26.51;22.29;100378.00;4927223;29;20054;-58
2021/04/16 10:41:52;;;;;;;8.50;2.30;;;;;;;28.43;20.74;100374.78;4964554;23;20129;-60
2021/04/16 12:39:24;;;;;;;3.88;2.13;;;;;;;40.17;11.46;100329.25;4985680;28;20415;-63
2021/04/16 12:41:54;;;;;;;5.30;2.05;;;;;;;40.30;11.44;100317.34;4985030;28;20077;-63
2021/04/16 12:44:26;;;;;;;3.72;2.70;;;;;;;41.08;11.28;100322.22;4985792;28;20048;-63
2021/04/16 12:46:56;;;;;;;4.00;2.13;;;;;;;41.03;10.76;100304.50;4983068;28;20084;-65
2021/04/16 12:49:26;;;;;;;3.50;1.98;;;;;;;40.87;11.49;100332.09;4986454;28;20535;-62
2021/04/16 12:51:54;;;;;;;8.98;2.10;;;;;;;41.63;10.58;100318.88;4986014;28;20149;-65
2021/04/16 12:54:20;;;;;;;3.23;1.90;;;;;;;42.07;10.67;100321.06;4985056;28;20047;-63
2021/04/16 12:56:48;;;;;;;4.43;2.30;;;;;;;41.94;11.04;100322.69;4987123;28;20054;-64
2021/04/16 12:59:22;;;;;;;5.65;2.20;;;;;;;42.09;10.42;100311.78;4987328;28;20124;-63
2021/04/16 13:01:51;;;;;;;4.05;2.42;;;;;;;42.07;10.46;100309.34;4988421;28;20046;-63
2021/04/16 13:04:24;;;;;;;6.78;2.35;;;;;;;42.57;10.26;100312.34;4987464;28;20406;-61
2021/04/16 13:06:50;;;;;;;2.92;2.08;;;;;;;42.55;10.76;100320.84;4987843;28;20485;-60
2021/04/16 13:09:21;;;;;;;8.68;2.55;;;;;;;39.96;12.38;100298.91;4986333;28;20060;-63
2021/04/16 13:11:48;;;;;;;4.80;2.70;;;;;;;37.34;15.07;100311.81;4979977;28;20050;-61
2021/04/16 13:14:15;;;;;;;6.22;3.22;;;;;;;34.98;17.46;100324.84;4983086;28;20042;-61
2021/04/16 13:16:44;;;;;;;8.63;3.10;;;;;;;33.34;19.00;100316.91;4985190;28;20053;-62
2021/04/16 13:19:23;;;;;;;8.18;3.70;;;;;;;32.13;20.18;100305.22;4985292;28;20058;-62
2021/04/16 13:21:53;;;;;;;9.68;3.92;;;;;;;31.20;22.13;100310.03;4988616;28;20081;-60
2021/04/16 13:24:19;;;;;;;7.07;3.72;;;;;;;29.99;22.76;100301.06;4980038;28;20505;-61
2021/04/16 13:26:46;;;;;;;9.48;3.70;;;;;;;29.17;24.45;100309.97;4983389;28;20050;-61
2021/04/16 13:29:12;;;;;;;8.63;4.00;;;;;;;28.39;25.41;100318.56;4985724;28;20066;-61
2021/04/16 13:31:38;;;;;;;10.00;4.25;;;;;;;27.62;26.46;100302.31;4985374;28;20042;-64
2021/04/16 13:34:09;;;;;;;11.25;3.92;;;;;;;27.03;27.54;100312.97;4982084;28;20046;-62
2021/04/16 13:36:35;;;;;;;8.25;3.97;;;;;;;26.57;28.62;100324.91;4983558;28;20061;-63
2021/04/16 13:39:04;;;;;;;8.23;3.28;;;;;;;26.33;29.56;100320.53;4983918;28;20049;-62
2021/04/16 13:41:34;;;;;;;8.35;4.15;;;;;;;26.16;30.15;100312.59;4987107;28;20133;-62
2021/04/16 13:44:03;;;;;;;7.07;4.32;;;;;;;26.06;30.39;100322.72;4981900;28;20047;-61
2021/04/16 13:46:32;;;;;;;8.93;4.22;;;;;;;25.82;31.53;100314.66;4987901;28;20137;-62
2021/04/16 13:49:00;;;;;;;7.55;4.03;;;;;;;25.62;31.71;100320.50;4983251;28;20060;-62
2021/04/16 13:51:26;;;;;;;7.68;3.95;;;;;;;25.48;32.47;100320.31;4985415;28;20069;-62
2021/04/16 13:53:53;;;;;;;10.55;4.63;;;;;;;25.44;32.81;100319.47;4989441;28;20046;-62